Time;durP1;ratioP1;P1;durP2;ratioP2;P2;SDS_P1;SDS_P2;PMS_P1;PMS_P2;Temp;Humidity;BMP_temperature;BMP_pressure;BME280_temperature;BME280_humidity;BME280_pressure;Samples;Min_cycle;Max_cycle;Signal;HPM_P1;HPM_P2
2021/05/16 00:00:24;;;;;;;1.17;1.05;;;;;;;11.83;83.12;97040.54;1651444;86;21575;-65
2021/05/16 00:02:54;;;;;;;4.15;1.15;;;;;;;11.81;83.02;97037.31;1651442;87;21084;-67
2021/05/16 00:05:24;;;;;;;2.00;1.25;;;;;;;11.79;83.30;97037.48;1651824;86;21076;-65
2021/05/16 00:07:52;;;;;;;5.62;1.50;;;;;;;11.77;83.54;97033.44;1651868;87;21127;-65
2021/05/16 00:10:22;;;;;;;2.58;1.22;;;;;;;11.73;83.61;97029.08;1651474;87;21607;-65
2021/05/16 00:12:49;;;;;;;1.47;1.17;;;;;;;11.71;83.39;97027.13;1651456;87;21196;-64
2021/05/16 00:15:19;;;;;;;1.62;1.17;;;;;;;11.67;83.78;97027.63;1651497;86;21599;-63
2021/05/16 00:17:48;;;;;;;3.30;1.22;;;;;;;11.69;83.22;97021.27;1651576;86;21158;-63
2021/05/16 00:20:19;;;;;;;2.08;1.27;;;;;;;11.71;83.25;97019.81;1651619;87;21071;-63
2021/05/16 00:22:49;;;;;;;2.72;1.30;;;;;;;11.74;83.08;97022.90;1650220;86;21086;-63
2021/05/16 00:25:19;;;;;;;3.40;1.30;;;;;;;11.78;82.68;97019.46;1649120;87;21111;-63
2021/05/16 00:27:47;;;;;;;1.30;1.00;;;;;;;11.83;83.05;97017.12;1648970;87;21130;-63
2021/05/16 00:30:17;;;;;;;1.50;1.20;;;;;;;11.83;83.05;97021.84;1649234;86;21099;-63
2021/05/16 00:32:45;;;;;;;1.70;1.20;;;;;;;11.81;82.71;97030.33;1649116;87;21158;-64
2021/05/16 00:35:16;;;;;;;1.22;1.05;;;;;;;11.74;82.34;97031.19;1650778;86;21599;-63
2021/05/16 00:37:44;;;;;;;1.67;1.02;;;;;;;11.74;82.30;97039.00;1649235;86;21187;-64
2021/05/16 00:40:13;;;;;;;1.90;1.20;;;;;;;11.67;82.15;97031.53;1649126;86;21084;-63
2021/05/16 00:42:40;;;;;;;2.70;1.40;;;;;;;11.65;81.80;97025.68;1649165;86;21076;-65
2021/05/16 00:45:18;;;;;;;1.12;0.88;;;;;;;11.66;81.93;97029.42;1649193;87;21493;-65
2021/05/16 00:47:52;;;;;;;1.02;0.90;;;;;;;11.68;81.87;97019.64;1649216;86;21583;-64
2021/05/16 00:50:24;;;;;;;2.33;1.00;;;;;;;11.72;81.74;97017.53;1649351;87;21087;-64
2021/05/16 00:52:52;;;;;;;1.55;1.05;;;;;;;11.79;81.66;97019.75;1649217;87;21167;-64
2021/05/16 00:55:20;;;;;;;1.65;1.20;;;;;;;11.84;81.49;97021.36;1649127;87;21587;-64
2021/05/16 00:57:48;;;;;;;0.93;0.90;;;;;;;11.88;81.25;97026.05;1649101;87;21584;-64
2021/05/16 01:00:21;;;;;;;2.47;1.20;;;;;;;11.93;81.02;97031.22;1649217;87;21142;-64
2021/05/16 01:02:49;;;;;;;1.82;0.93;;;;;;;11.98;80.83;97025.83;1650865;86;21064;-65
2021/05/16 01:05:20;;;;;;;1.77;1.07;;;;;;;12.05;80.88;97023.33;1649225;87;21677;-64
2021/05/16 01:07:48;;;;;;;1.52;1.20;;;;;;;11.95;80.68;97004.03;1649175;87;21071;-65
2021/05/16 01:10:19;;;;;;;1.25;0.90;;;;;;;12.02;80.50;97023.20;1649029;87;21718;-66
2021/05/16 01:12:50;;;;;;;2.08;0.80;;;;;;;12.00;80.56;97025.15;1649031;87;21646;-64
2021/05/16 01:15:19;;;;;;;1.00;0.80;;;;;;;12.01;80.46;97030.67;1628803;87;21123;-65
2021/05/16 01:17:48;;;;;;;1.12;0.90;;;;;;;11.91;80.59;97024.88;1649264;86;21075;-65
2021/05/16 01:20:24;;;;;;;2.40;1.15;;;;;;;11.89;80.50;97018.56;1649131;86;21131;-66
2021/05/16 01:22:57;;;;;;;1.85;0.60;;;;;;;11.84;80.81;97020.87;1670072;86;21095;-62
2021/05/16 01:25:26;;;;;;;3.08;0.93;;;;;;;11.87;80.36;97018.41;1654279;86;21114;-64
2021/05/16 01:27:53;;;;;;;0.90;0.70;;;;;;;11.84;80.45;97017.45;1651162;87;21067;-64
2021/05/16 01:30:22;;;;;;;1.00;0.90;;;;;;;11.85;80.07;97019.89;1651328;87;21659;-62
2021/05/16 01:35:40;;;;;;;1.85;0.93;;;;;;;11.84;80.00;97025.26;1708896;84;21665;-64
2021/05/16 01:38:08;;;;;;;1.37;0.78;;;;;;;11.81;79.66;97010.81;1738549;82;21095;-64
2021/05/16 01:40:40;;;;;;;1.65;0.90;;;;;;;11.84;79.64;97009.66;1707755;84;21130;-64
2021/05/16 01:43:11;;;;;;;0.80;0.60;;;;;;;11.83;79.59;97014.04;1737100;82;21007;-64
2021/05/16 01:45:38;;;;;;;4.62;0.85;;;;;;;11.82;79.84;97013.74;1708939;84;21037;-65
2021/05/16 01:48:06;;;;;;;1.87;1.17;;;;;;;11.83;79.70;97019.24;1709155;82;21220;-65
2021/05/16 01:50:36;;;;;;;0.80;0.72;;;;;;;11.85;79.62;97015.99;1709074;84;21034;-66
2021/05/16 01:53:07;;;;;;;0.93;0.70;;;;;;;11.90;79.53;97019.38;1708894;83;21058;-66
2021/05/16 01:55:35;;;;;;;0.80;0.68;;;;;;;11.94;79.30;97019.84;1746576;82;21532;-66
2021/05/16 01:58:04;;;;;;;0.85;0.68;;;;;;;11.97;79.17;97019.00;1720080;83;21067;-66
2021/05/16 02:00:38;;;;;;;1.27;1.00;;;;;;;12.00;79.02;97021.73;1738406;82;21060;-65
2021/05/16 02:03:08;;;;;;;3.92;0.88;;;;;;;12.03;78.77;97017.47;1738223;82;20996;-65
2021/05/16 02:05:37;;;;;;;1.55;1.00;;;;;;;11.98;78.67;97020.63;1708540;84;21058;-65
2021/05/16 02:08:06;;;;;;;0.78;0.60;;;;;;;11.89;79.00;97012.06;1708922;82;21697;-66
2021/05/16 02:10:34;;;;;;;1.25;0.85;;;;;;;11.84;79.13;97011.77;1709038;84;21086;-65
2021/05/16 02:13:04;;;;;;;1.37;1.07;;;;;;;11.79;79.38;97015.37;1708646;84;21185;-65
2021/05/16 02:15:32;;;;;;;1.87;0.80;;;;;;;11.70;79.43;97019.48;1746517;82;21642;-65
2021/05/16 02:18:01;;;;;;;0.98;0.80;;;;;;;11.61;79.82;97018.72;1720057;83;21555;-65
2021/05/16 02:20:29;;;;;;;0.70;0.70;;;;;;;11.44;80.20;97021.08;1738376;81;21079;-65
2021/05/16 02:22:56;;;;;;;1.60;0.82;;;;;;;11.42;80.13;97021.75;1719840;83;21033;-65
2021/05/16 02:25:23;;;;;;;1.52;0.95;;;;;;;11.32;80.33;97021.95;1716230;82;21036;-65
2021/05/16 02:27:50;;;;;;;1.70;0.80;;;;;;;11.27;80.59;97029.95;1738555;82;21087;-65
2021/05/16 02:30:22;;;;;;;1.67;1.02;;;;;;;11.20;80.92;97027.72;1707562;84;21098;-65
2021/05/16 02:32:50;;;;;;;0.72;0.62;;;;;;;11.15;80.71;97022.20;1707323;84;21495;-65
2021/05/16 02:35:17;;;;;;;0.53;0.50;;;;;;;11.11;81.41;97019.62;1748569;81;21545;-65
2021/05/16 02:37:46;;;;;;;0.95;0.68;;;;;;;11.05;81.19;97015.11;1776460;81;21048;-65
2021/05/16 02:40:14;;;;;;;1.05;0.88;;;;;;;11.02;81.03;97013.64;1778377;81;21635;-65
2021/05/16 02:42:42;;;;;;;1.25;0.80;;;;;;;10.99;81.48;97021.77;1778446;81;21051;-65
2021/05/16 02:45:33;;;;;;;1.32;0.68;;;;;;;10.96;81.28;97020.82;1778244;81;21538;-65
2021/05/16 02:48:02;;;;;;;1.10;0.90;;;;;;;10.96;81.39;97019.52;1753072;81;21565;-66
2021/05/16 02:50:30;;;;;;;1.22;0.85;;;;;;;10.90;82.59;97017.58;1753381;81;21011;-65
2021/05/16 02:53:02;;;;;;;1.87;0.90;;;;;;;10.85;82.38;97014.69;1753573;82;21125;-65
2021/05/16 02:55:40;;;;;;;1.42;0.80;;;;;;;10.85;81.99;97014.20;1752912;81;21146;-65
2021/05/16 02:58:07;;;;;;;0.95;0.82;;;;;;;10.85;81.46;97006.90;1753672;81;21676;-68
2021/05/16 03:00:36;;;;;;;0.88;0.65;;;;;;;10.84;81.24;97007.87;1751904;81;21050;-65
2021/05/16 03:03:03;;;;;;;0.90;0.75;;;;;;;10.82;82.16;97010.63;1753638;82;21166;-65
2021/05/16 03:05:32;;;;;;;1.35;0.90;;;;;;;10.77;83.22;97011.63;1753756;82;21161;-65
2021/05/16 03:08:00;;;;;;;0.98;0.72;;;;;;;10.74;83.01;97009.34;1753380;81;21584;-64
2021/05/16 03:10:27;;;;;;;1.10;1.00;;;;;;;10.73;82.46;97005.63;1753603;81;20995;-64
2021/05/16 03:12:55;;;;;;;1.10;0.68;;;;;;;10.74;82.12;97002.03;1753556;82;21050;-65
2021/05/16 03:15:23;;;;;;;0.88;0.80;;;;;;;10.74;82.07;97002.03;1753400;81;21043;-62
2021/05/16 03:17:50;;;;;;;1.17;0.80;;;;;;;10.75;81.94;97016.65;1753306;82;21535;-64
2021/05/16 03:20:18;;;;;;;0.90;0.57;;;;;;;10.75;82.52;97012.75;1753378;82;21058;-64
2021/05/16 03:22:46;;;;;;;1.32;0.90;;;;;;;10.74;82.38;97013.23;1731781;82;21078;-64
2021/05/16 03:25:14;;;;;;;1.42;1.00;;;;;;;10.72;82.49;97016.50;1753475;82;21625;-64
2021/05/16 03:27:41;;;;;;;1.20;1.10;;;;;;;10.70;82.05;97005.97;1732292;82;21003;-64
2021/05/16 03:30:11;;;;;;;1.60;1.10;;;;;;;10.70;81.84;97004.16;1753580;82;21110;-65
2021/05/16 03:32:40;;;;;;;2.12;1.00;;;;;;;10.71;81.97;96999.30;1753546;81;21118;-66
2021/05/16 03:35:10;;;;;;;1.07;0.80;;;;;;;10.74;82.44;97004.63;1753505;82;21614;-66
2021/05/16 03:37:38;;;;;;;2.85;0.90;;;;;;;10.74;82.65;97008.53;1753230;81;21023;-66
2021/05/16 03:40:07;;;;;;;0.68;0.60;;;;;;;10.76;82.56;97006.11;1753438;82;21011;-66
2021/05/16 03:42:35;;;;;;;4.20;1.15;;;;;;;10.80;81.91;97001.39;1753445;82;21140;-66
2021/05/16 03:45:05;;;;;;;1.25;1.15;;;;;;;10.86;81.79;97001.52;1753429;82;21113;-66
2021/05/16 03:47:32;;;;;;;1.22;0.90;;;;;;;10.92;82.47;96999.56;1734805;82;21115;-66
2021/05/16 03:49:59;;;;;;;1.00;0.90;;;;;;;10.96;82.74;97003.94;1730107;83;21079;-64
2021/05/16 03:52:26;;;;;;;1.80;1.10;;;;;;;11.03;82.41;97000.16;1730080;81;21059;-64
2021/05/16 03:54:53;;;;;;;1.62;1.00;;;;;;;11.09;81.97;97004.70;1730130;83;21066;-66
2021/05/16 03:57:22;;;;;;;3.37;0.90;;;;;;;11.16;82.18;97010.84;1730378;83;21240;-66
2021/05/16 03:59:49;;;;;;;1.72;1.07;;;;;;;11.20;82.04;97012.13;1729997;83;21111;-66
2021/05/16 04:02:16;;;;;;;2.83;1.25;;;;;;;11.28;81.67;97002.98;1730011;81;21031;-66
2021/05/16 04:04:43;;;;;;;1.72;0.90;;;;;;;11.37;81.56;97004.06;1730194;82;21761;-66
2021/05/16 04:07:10;;;;;;;1.30;1.00;;;;;;;11.45;81.81;97001.91;1730295;83;21178;-66
2021/05/16 04:09:37;;;;;;;1.67;1.05;;;;;;;11.52;81.50;96996.82;1725606;82;21087;-66
2021/05/16 04:12:05;;;;;;;1.85;1.00;;;;;;;11.53;81.38;96997.14;1730147;82;21587;-66
2021/05/16 04:14:32;;;;;;;2.00;1.07;;;;;;;11.52;81.22;96995.52;1730313;82;21079;-66
2021/05/16 04:16:59;;;;;;;1.37;0.93;;;;;;;11.54;81.25;96996.98;1730034;83;21027;-66
2021/05/16 04:19:26;;;;;;;1.00;0.90;;;;;;;11.55;81.28;96999.91;1730247;82;21055;-66
2021/05/16 04:21:54;;;;;;;2.20;1.22;;;;;;;11.60;80.97;96996.28;1730239;82;21063;-66
2021/05/16 04:24:21;;;;;;;2.70;1.02;;;;;;;11.65;80.95;96999.67;1730244;82;21709;-66
2021/05/16 04:26:48;;;;;;;1.05;0.95;;;;;;;11.67;80.67;96991.22;1730283;83;21512;-66
2021/05/16 04:29:15;;;;;;;1.35;0.80;;;;;;;11.72;80.49;97000.14;1730082;82;21079;-66
2021/05/16 04:31:42;;;;;;;1.57;0.78;;;;;;;11.69;80.93;96997.86;1730238;83;21066;-65
2021/05/16 04:34:09;;;;;;;1.82;1.15;;;;;;;11.80;80.71;97000.09;1730242;83;21106;-66
2021/05/16 04:36:36;;;;;;;1.72;1.02;;;;;;;11.90;80.50;96993.36;1730205;82;21074;-65
2021/05/16 04:39:05;;;;;;;2.15;1.02;;;;;;;12.00;80.28;96997.83;1730134;83;21047;-64
2021/05/16 04:41:33;;;;;;;1.10;1.00;;;;;;;12.13;80.06;97001.15;1730291;82;21265;-66
2021/05/16 04:44:01;;;;;;;2.45;0.90;;;;;;;12.25;79.58;97001.05;1730073;82;21000;-65
2021/05/16 04:46:30;;;;;;;1.20;0.93;;;;;;;12.36;79.50;97001.42;1704570;82;21083;-63
2021/05/16 04:48:57;;;;;;;1.40;0.85;;;;;;;12.54;79.54;97001.08;1767647;81;21076;-65
2021/05/16 04:51:24;;;;;;;4.70;0.72;;;;;;;12.73;79.10;96994.05;1767683;80;21038;-64
2021/05/16 04:53:52;;;;;;;1.85;0.90;;;;;;;12.90;78.29;96998.59;1767598;81;20998;-64
2021/05/16 04:56:21;;;;;;;1.77;1.20;;;;;;;13.01;77.18;97007.73;1766999;80;21557;-64
2021/05/16 04:58:48;;;;;;;1.35;0.70;;;;;;;13.09;76.37;97000.64;1761607;81;21035;-64
2021/05/16 05:01:15;;;;;;;4.50;1.10;;;;;;;13.27;76.12;96997.66;1766990;81;21018;-63
2021/05/16 05:03:42;;;;;;;1.37;1.07;;;;;;;13.42;75.75;96995.86;1758968;81;21569;-64
2021/05/16 05:06:09;;;;;;;0.70;0.70;;;;;;;13.57;75.82;96991.41;1758882;81;21074;-64
2021/05/16 05:08:38;;;;;;;1.85;1.12;;;;;;;13.69;74.34;96988.63;1758924;80;21514;-66
2021/05/16 05:11:05;;;;;;;1.77;1.40;;;;;;;13.83;74.26;96988.24;1758832;80;21061;-65
2021/05/16 05:13:32;;;;;;;2.02;1.37;;;;;;;13.96;73.66;96984.95;1758907;81;21121;-63
2021/05/16 05:15:59;;;;;;;3.27;1.50;;;;;;;14.09;74.50;96984.56;1758782;81;21098;-63
2021/05/16 05:18:26;;;;;;;2.35;1.47;;;;;;;14.23;74.01;96980.27;1758805;81;21030;-64
2021/05/16 05:20:53;;;;;;;2.15;1.75;;;;;;;14.12;72.43;96982.09;1736000;81;21010;-64
2021/05/16 05:23:19;;;;;;;4.00;1.98;;;;;;;14.17;73.06;96989.65;1758840;81;21054;-64
2021/05/16 05:25:47;;;;;;;3.37;1.82;;;;;;;14.17;72.71;96990.14;1758748;81;21066;-66
2021/05/16 05:28:17;;;;;;;2.87;1.87;;;;;;;14.32;72.84;96980.94;1759079;81;21038;-67
2021/05/16 05:30:45;;;;;;;7.67;3.40;;;;;;;14.32;72.67;96981.72;1758907;80;21137;-65
2021/05/16 05:33:12;;;;;;;6.22;2.77;;;;;;;14.41;73.36;96988.45;1759072;81;21061;-65
2021/05/16 05:35:39;;;;;;;3.33;2.37;;;;;;;14.62;72.88;96996.25;1759001;81;21018;-67
2021/05/16 05:38:06;;;;;;;2.80;2.52;;;;;;;14.73;72.44;96993.11;1758706;80;21035;-65
2021/05/16 05:40:33;;;;;;;3.90;2.45;;;;;;;14.76;72.25;96997.13;1758826;81;21133;-64
2021/05/16 05:43:00;;;;;;;2.20;2.00;;;;;;;14.83;72.23;96999.77;1758768;81;21078;-66
2021/05/16 05:45:28;;;;;;;2.37;1.47;;;;;;;14.82;72.39;97001.61;1758942;81;21036;-64
2021/05/16 05:47:55;;;;;;;2.75;1.70;;;;;;;14.76;71.59;97001.05;1738470;81;21040;-66
2021/05/16 05:50:23;;;;;;;2.72;1.82;;;;;;;14.61;72.49;97000.36;1730614;83;21126;-67
2021/05/16 05:52:50;;;;;;;1.60;1.45;;;;;;;14.64;72.69;97003.89;1730637;83;21067;-66
2021/05/16 05:55:18;;;;;;;2.08;1.80;;;;;;;14.55;72.27;96999.83;1730397;83;21082;-67
2021/05/16 05:57:45;;;;;;;3.27;1.70;;;;;;;14.53;72.32;97001.80;1730479;83;21090;-66
2021/05/16 06:00:13;;;;;;;4.08;1.45;;;;;;;14.55;72.75;97001.12;1730456;83;21094;-67
2021/05/16 06:02:40;;;;;;;3.37;2.20;;;;;;;14.64;72.68;97009.11;1730497;83;21150;-67
2021/05/16 06:05:09;;;;;;;3.12;2.00;;;;;;;14.72;72.81;97009.78;1730322;83;21054;-65
2021/05/16 06:07:36;;;;;;;3.95;2.40;;;;;;;14.77;72.87;97011.82;1730132;83;21039;-67
2021/05/16 06:10:06;;;;;;;4.58;1.98;;;;;;;14.78;72.78;97007.41;1730346;82;21052;-66
2021/05/16 06:12:33;;;;;;;3.55;1.80;;;;;;;14.78;72.92;97016.06;1730344;82;21145;-66
2021/05/16 06:15:00;;;;;;;3.08;2.25;;;;;;;14.80;72.89;97006.20;1730317;83;21582;-67
2021/05/16 06:17:27;;;;;;;2.40;1.75;;;;;;;14.81;72.87;97005.22;1730295;83;21142;-66
2021/05/16 06:19:54;;;;;;;2.83;1.80;;;;;;;14.80;72.75;97008.00;1730228;82;21020;-66
2021/05/16 06:22:21;;;;;;;2.95;1.98;;;;;;;14.68;73.18;96998.09;1730248;83;21149;-67
2021/05/16 06:24:48;;;;;;;4.03;2.85;;;;;;;14.68;73.24;96988.95;1730276;82;21075;-67
2021/05/16 06:27:14;;;;;;;3.92;2.42;;;;;;;14.62;74.03;96998.87;1730243;82;21071;-65
2021/05/16 06:29:41;;;;;;;2.72;1.92;;;;;;;14.62;74.53;96993.64;1730211;83;21094;-65
2021/05/16 06:32:10;;;;;;;2.40;1.70;;;;;;;14.54;75.57;96987.26;1730342;82;21096;-66
2021/05/16 06:34:37;;;;;;;1.70;1.37;;;;;;;14.55;75.25;96988.84;1730227;83;21530;-67
2021/05/16 06:37:05;;;;;;;2.10;1.60;;;;;;;14.51;75.18;96994.14;1730295;82;21127;-67
2021/05/16 06:39:32;;;;;;;3.35;1.17;;;;;;;14.61;75.26;96993.83;1730340;82;21525;-64
2021/05/16 06:41:59;;;;;;;1.92;1.27;;;;;;;14.72;74.57;96995.90;1730520;83;21059;-66
2021/05/16 06:44:26;;;;;;;3.58;1.50;;;;;;;14.78;74.13;96993.84;1730378;82;21011;-67
2021/05/16 06:46:53;;;;;;;2.58;1.70;;;;;;;14.82;75.73;96996.88;1730291;82;21123;-67
2021/05/16 06:49:20;;;;;;;2.67;1.70;;;;;;;14.83;77.40;96997.16;1727178;83;21087;-67
2021/05/16 06:51:47;;;;;;;3.60;1.55;;;;;;;14.78;79.57;96990.42;1722739;83;21522;-66
2021/05/16 06:54:14;;;;;;;2.15;1.40;;;;;;;14.90;77.32;96989.66;1722722;83;21570;-67
2021/05/16 06:56:41;;;;;;;2.50;1.42;;;;;;;15.03;76.63;96990.23;1722799;83;21031;-65
2021/05/16 06:59:07;;;;;;;1.57;1.02;;;;;;;15.13;76.27;96983.67;1722603;83;21583;-65
2021/05/16 07:01:36;;;;;;;1.65;1.42;;;;;;;15.26;75.94;96978.97;1723112;83;22770;-67
2021/05/16 07:04:03;;;;;;;2.55;1.52;;;;;;;15.36;74.81;96978.62;1722993;83;21031;-67
2021/05/16 07:06:32;;;;;;;2.10;1.17;;;;;;;15.45;74.80;96980.03;1722749;83;21080;-67
2021/05/16 07:08:59;;;;;;;2.00;1.80;;;;;;;15.54;73.08;96986.25;1725091;82;21165;-65
2021/05/16 07:11:26;;;;;;;3.25;1.57;;;;;;;15.50;76.40;96979.79;1725041;83;21206;-65
2021/05/16 07:13:53;;;;;;;1.87;1.27;;;;;;;15.62;77.12;96977.41;1724925;83;21070;-68
2021/05/16 07:16:19;;;;;;;1.60;1.20;;;;;;;15.82;75.95;96969.59;1725073;82;21192;-66
2021/05/16 07:18:47;;;;;;;1.30;1.00;;;;;;;16.11;75.35;96973.94;1725067;82;21146;-66
2021/05/16 07:21:14;;;;;;;1.60;1.00;;;;;;;16.43;74.00;96975.44;1722835;83;21051;-66
2021/05/16 07:23:41;;;;;;;1.72;1.20;;;;;;;16.73;73.41;96970.08;1722723;82;21048;-67
2021/05/16 07:26:08;;;;;;;2.83;1.25;;;;;;;16.99;70.38;96973.16;1722656;82;21560;-66
2021/05/16 07:28:35;;;;;;;1.30;0.85;;;;;;;17.23;69.01;96969.03;1722630;83;21072;-66
2021/05/16 07:31:02;;;;;;;0.80;0.53;;;;;;;17.47;68.57;96968.30;1722744;83;21618;-67
2021/05/16 07:33:28;;;;;;;1.52;0.90;;;;;;;17.67;67.32;96969.53;1725141;82;21102;-67
2021/05/16 07:35:55;;;;;;;1.20;1.10;;;;;;;17.79;64.17;96967.84;1725059;83;21103;-65
2021/05/16 07:38:23;;;;;;;2.15;1.27;;;;;;;17.67;66.30;96974.78;1725110;83;21111;-64
2021/05/16 07:40:50;;;;;;;3.35;1.20;;;;;;;17.72;66.60;96978.90;1725147;82;21147;-65
2021/05/16 07:43:18;;;;;;;2.72;1.12;;;;;;;17.28;67.73;96980.50;1725142;82;21056;-65
2021/05/16 07:45:45;;;;;;;1.72;1.40;;;;;;;17.47;65.06;96977.48;1724962;83;21599;-65
2021/05/16 07:48:12;;;;;;;2.05;1.32;;;;;;;17.34;67.78;96984.93;1734484;81;21448;-67
2021/05/16 07:50:39;;;;;;;1.82;1.17;;;;;;;17.49;66.54;96984.66;1750180;82;21090;-66
2021/05/16 07:53:06;;;;;;;1.70;0.95;;;;;;;17.59;63.40;96984.24;1750236;81;21062;-66
2021/05/16 07:55:33;;;;;;;2.05;1.70;;;;;;;17.42;66.32;96992.56;1750378;82;21026;-67
2021/05/16 07:58:00;;;;;;;3.80;1.55;;;;;;;17.49;66.61;96992.53;1750297;81;21019;-66
2021/05/16 08:00:27;;;;;;;2.50;1.60;;;;;;;17.65;65.46;96993.39;1750285;81;21066;-67
2021/05/16 08:02:54;;;;;;;3.90;1.80;;;;;;;17.65;66.58;96999.14;1750244;82;21066;-67
2021/05/16 08:05:21;;;;;;;2.87;1.37;;;;;;;17.62;67.68;96999.06;1750265;82;21023;-66
2021/05/16 08:07:49;;;;;;;2.35;1.50;;;;;;;17.63;67.55;96997.22;1750074;82;21169;-67
2021/05/16 08:10:20;;;;;;;2.25;1.35;;;;;;;17.42;68.23;96997.81;1750215;81;21642;-67
2021/05/16 08:13:12;;;;;;;1.87;1.32;;;;;;;17.35;69.50;96992.30;1718720;82;21199;-67
2021/05/16 08:15:39;;;;;;;3.12;1.95;;;;;;;17.30;68.50;97001.29;1678884;84;21097;-67
2021/05/16 08:18:06;;;;;;;2.87;1.50;;;;;;;17.14;69.05;96994.69;1679033;84;21105;-67
2021/05/16 08:20:33;;;;;;;1.95;1.77;;;;;;;17.16;69.42;96994.49;1678841;84;21116;-66
2021/05/16 08:23:00;;;;;;;3.55;1.75;;;;;;;16.83;69.62;96998.00;1678641;84;21135;-67
2021/05/16 08:25:27;;;;;;;1.95;1.50;;;;;;;16.77;70.85;96995.41;1678731;84;21097;-66
2021/05/16 08:27:54;;;;;;;3.55;1.40;;;;;;;16.68;70.86;97000.55;1723619;82;21543;-67
2021/05/16 08:30:22;;;;;;;1.85;1.37;;;;;;;16.51;71.41;96998.82;1710854;83;21555;-66
2021/05/16 08:32:49;;;;;;;2.35;1.90;;;;;;;16.57;71.70;96998.84;1710851;82;21079;-66
2021/05/16 08:35:16;;;;;;;4.20;1.62;;;;;;;16.36;72.54;97005.59;1710694;82;21143;-67
2021/05/16 08:37:43;;;;;;;2.98;1.57;;;;;;;16.37;71.78;97007.70;1710699;84;21040;-67
2021/05/16 08:40:11;;;;;;;2.12;1.45;;;;;;;16.52;72.29;97003.06;1710928;82;21095;-66
2021/05/16 08:42:38;;;;;;;2.80;1.40;;;;;;;16.55;72.59;96992.97;1710879;84;21044;-67
2021/05/16 08:45:10;;;;;;;2.00;1.35;;;;;;;16.67;71.70;97008.92;1710951;84;21083;-67
2021/05/16 08:47:38;;;;;;;3.50;1.17;;;;;;;16.74;72.22;97012.33;1710823;84;21079;-67
2021/05/16 08:50:10;;;;;;;3.25;1.50;;;;;;;16.75;73.04;97021.00;1710750;82;21573;-66
2021/05/16 08:52:38;;;;;;;2.30;1.70;;;;;;;16.84;73.28;97023.22;1710011;82;21127;-66
2021/05/16 08:55:27;;;;;;;3.55;1.50;;;;;;;16.77;75.38;97020.31;1710866;82;21139;-66
2021/05/16 08:57:54;;;;;;;2.62;1.87;;;;;;;16.73;75.01;97017.27;1720683;82;21133;-67
2021/05/16 09:00:26;;;;;;;1.87;1.25;;;;;;;16.74;75.20;97012.33;1720562;82;21162;-66
2021/05/16 09:03:13;;;;;;;3.25;1.42;;;;;;;16.67;75.49;97009.42;1720778;82;21619;-65
2021/05/16 09:05:49;;;;;;;1.32;1.00;;;;;;;16.53;76.42;97007.30;1720988;82;21579;-65
2021/05/16 09:08:22;;;;;;;2.50;1.70;;;;;;;16.73;75.20;97003.38;1720646;82;21166;-67
2021/05/16 09:10:59;;;;;;;1.52;1.25;;;;;;;16.66;76.23;97006.48;1720623;82;21198;-67
2021/05/16 09:13:30;;;;;;;1.62;1.37;;;;;;;16.77;75.83;97008.52;1720603;82;21051;-67
2021/05/16 09:16:06;;;;;;;2.72;1.27;;;;;;;16.61;74.40;96999.27;1720545;82;21527;-66
2021/05/16 09:18:46;;;;;;;1.42;1.22;;;;;;;16.78;74.55;97002.23;1720673;82;22255;-64
2021/05/16 09:21:29;;;;;;;2.83;1.12;;;;;;;16.82;75.30;96996.38;1720742;82;21166;-65
2021/05/16 09:24:10;;;;;;;0.95;0.80;;;;;;;16.84;73.54;97001.44;1720437;82;21054;-66
2021/05/16 09:26:58;;;;;;;3.12;1.30;;;;;;;16.94;72.30;96991.31;1717679;82;21572;-65
2021/05/16 09:29:40;;;;;;;1.52;1.22;;;;;;;16.98;72.30;96995.14;1720575;82;21630;-65
2021/05/16 09:32:04;;;;;;;1.20;0.90;;;;;;;16.94;72.29;96986.88;1719750;82;21134;-65
2021/05/16 09:34:31;;;;;;;1.70;0.80;;;;;;;16.91;71.91;96988.61;1720583;82;21098;-65
2021/05/16 09:36:58;;;;;;;2.58;1.25;;;;;;;16.96;71.72;96993.24;1720632;83;21147;-67
2021/05/16 09:39:29;;;;;;;1.17;1.00;;;;;;;16.90;72.20;96988.80;1720605;83;21155;-64
2021/05/16 09:42:06;;;;;;;2.50;1.07;;;;;;;16.76;71.85;96988.05;1720465;82;21061;-65
2021/05/16 09:44:45;;;;;;;1.62;1.02;;;;;;;16.83;71.51;96984.89;1720665;82;21154;-65
2021/05/16 09:47:23;;;;;;;1.30;0.65;;;;;;;16.76;72.05;96989.35;1720584;82;21042;-62
2021/05/16 09:50:00;;;;;;;1.32;0.85;;;;;;;16.86;71.90;96989.72;1720637;82;21123;-64
2021/05/16 09:52:31;;;;;;;2.40;1.57;;;;;;;16.86;71.13;96990.22;1719714;82;21166;-63
2021/05/16 09:55:11;;;;;;;4.22;2.47;;;;;;;16.67;72.61;96985.83;1720563;82;21168;-62
2021/05/16 09:57:43;;;;;;;2.67;2.00;;;;;;;16.66;73.04;96989.45;1730616;82;21074;-65
2021/05/16 10:00:13;;;;;;;2.20;1.67;;;;;;;16.64;73.54;96994.11;1736616;82;21136;-67
2021/05/16 10:02:40;;;;;;;3.00;2.10;;;;;;;16.56;73.99;96992.00;1736490;81;21003;-65
2021/05/16 10:05:10;;;;;;;2.77;1.47;;;;;;;16.58;74.15;96987.84;1736538;82;21035;-66
2021/05/16 10:07:39;;;;;;;3.08;1.72;;;;;;;16.75;73.56;96986.42;1736605;81;21046;-67
2021/05/16 10:10:08;;;;;;;2.27;1.37;;;;;;;16.82;72.99;96980.66;1736619;81;21649;-67
2021/05/16 10:12:39;;;;;;;2.17;1.80;;;;;;;17.13;72.12;96977.83;1736714;82;21130;-67
2021/05/16 10:15:16;;;;;;;2.72;1.92;;;;;;;17.46;71.24;96977.20;1729127;82;21038;-66
2021/05/16 10:17:50;;;;;;;5.92;2.37;;;;;;;17.81;71.41;96975.02;1728814;82;21097;-65
2021/05/16 10:20:20;;;;;;;2.70;1.75;;;;;;;18.23;69.08;96974.30;1728640;82;21067;-67
2021/05/16 10:23:10;;;;;;;2.12;1.50;;;;;;;18.47;68.62;96964.80;1728665;82;21062;-67
2021/05/16 10:25:47;;;;;;;2.47;1.75;;;;;;;18.42;67.84;96961.50;1736648;81;21082;-66
2021/05/16 10:28:16;;;;;;;1.72;1.35;;;;;;;18.58;69.43;96966.74;1736460;82;22251;-67
2021/05/16 10:31:03;;;;;;;2.55;1.30;;;;;;;18.69;68.19;96964.70;1736463;81;21027;-67
2021/05/16 10:33:35;;;;;;;2.05;1.40;;;;;;;18.66;66.29;96957.77;1731046;82;21112;-67
2021/05/16 10:36:03;;;;;;;3.83;1.40;;;;;;;18.83;66.65;96953.55;1728630;83;21035;-67
2021/05/16 10:38:38;;;;;;;1.17;1.00;;;;;;;19.22;64.90;96949.66;1728679;82;21059;-64
2021/05/16 10:41:24;;;;;;;1.85;1.30;;;;;;;19.54;64.14;96947.13;1728851;82;21086;-70
2021/05/16 10:44:07;;;;;;;1.07;0.98;;;;;;;19.39;65.13;96945.37;1728679;83;21075;-64
2021/05/16 10:46:42;;;;;;;1.15;1.00;;;;;;;20.06;61.10;96945.56;1728697;82;21095;-65
2021/05/16 10:49:27;;;;;;;2.00;0.95;;;;;;;20.68;59.28;96949.91;1701164;83;21096;-64
2021/05/16 10:51:55;;;;;;;1.98;1.00;;;;;;;21.37;59.85;96942.89;1689778;83;21108;-65
2021/05/16 10:54:34;;;;;;;1.65;0.90;;;;;;;21.49;56.60;96938.37;1701205;83;21128;-64
2021/05/16 10:57:25;;;;;;;1.45;0.80;;;;;;;21.65;53.48;96934.97;1701197;83;21623;-64
2021/05/16 10:59:53;;;;;;;1.10;1.00;;;;;;;21.86;54.37;96931.66;1701233;83;21092;-63
2021/05/16 11:02:59;;;;;;;0.95;0.80;;;;;;;22.26;51.66;96928.87;1679653;83;21116;-66
2021/05/16 11:05:47;;;;;;;2.75;0.70;;;;;;;22.89;51.96;96913.91;1703664;83;21115;-68
2021/05/16 11:08:29;;;;;;;1.15;0.80;;;;;;;23.23;48.78;96915.13;1703793;83;21071;-66
2021/05/16 11:10:55;;;;;;;0.80;0.62;;;;;;;23.08;46.72;96909.10;1703930;83;21064;-66
2021/05/16 11:13:29;;;;;;;0.50;0.50;;;;;;;23.20;46.02;96905.80;1701507;83;21579;-66
2021/05/16 11:16:04;;;;;;;0.68;0.65;;;;;;;22.72;45.48;96904.44;1721948;82;21098;-68
2021/05/16 11:18:31;;;;;;;1.80;0.60;;;;;;;22.42;47.06;96904.77;1737395;81;21561;-68
2021/05/16 11:21:05;;;;;;;0.70;0.65;;;;;;;22.14;46.23;96901.19;1736948;81;21094;-66
2021/05/16 11:23:38;;;;;;;2.05;0.80;;;;;;;22.12;47.28;96895.88;1734814;81;21111;-66
2021/05/16 11:26:09;;;;;;;1.00;0.65;;;;;;;22.75;46.25;96889.38;1710582;83;21635;-67
2021/05/16 11:28:41;;;;;;;1.22;0.70;;;;;;;23.14;47.04;96887.75;1710678;83;21098;-67
2021/05/16 11:31:11;;;;;;;0.75;0.75;;;;;;;23.22;44.31;96869.81;1710497;84;21143;-64
2021/05/16 11:33:41;;;;;;;3.47;1.00;;;;;;;22.51;46.71;96896.70;1710261;84;21127;-63
2021/05/16 11:36:15;;;;;;;2.17;1.00;;;;;;;22.96;46.08;96893.34;1710759;84;21095;-63
2021/05/16 11:38:46;;;;;;;0.80;0.60;;;;;;;23.01;44.86;96890.77;1688824;84;21138;-65
2021/05/16 11:41:40;;;;;;;3.27;0.68;;;;;;;22.96;43.19;96884.08;1710566;83;21178;-65
2021/05/16 11:44:13;;;;;;;1.22;0.88;;;;;;;23.08;43.37;96890.57;1710853;84;21151;-64
2021/05/16 11:46:45;;;;;;;0.98;0.60;;;;;;;22.85;42.10;96882.36;1710741;84;21151;-65
2021/05/16 11:49:25;;;;;;;0.98;0.82;;;;;;;22.72;43.16;96876.65;1710704;84;21155;-63